Time;durP1;ratioP1;P1;durP2;ratioP2;P2;SDS_P1;SDS_P2;PMS_P1;PMS_P2;Temp;Humidity;BMP_temperature;BMP_pressure;BME280_temperature;BME280_humidity;BME280_pressure;Samples;Min_cycle;Max_cycle;Signal;HPM_P1;HPM_P2
2022/05/05 00:15:41;;;;;;;;;12.67;12.67;;;;;;;;5033394;28;45382;-73
2022/05/05 00:18:07;;;;;;;;;12.00;11.33;;;;;;;;5031573;28;45532;-73
2022/05/05 00:20:45;;;;;;;;;18.00;15.00;;;;;;;;4996297;28;45713;-72
2022/05/05 00:23:41;;;;;;;;;16.67;13.33;;;;;;;;5001348;28;47790;-74
2022/05/05 00:26:13;;;;;;;;;19.67;17.67;;;;;;;;5049595;28;45449;-74
2022/05/05 00:28:43;;;;;;;;;12.33;11.00;;;;;;;;5033214;28;45433;-74
2022/05/05 00:31:15;;;;;;;;;15.00;14.00;;;;;;;;5053872;28;46095;-72
2022/05/05 00:34:03;;;;;;;;;13.33;13.33;;;;;;;;5056305;28;45382;-72
2022/05/05 00:39:20;;;;;;;;;12.33;12.33;;;;;;;;5042063;28;45402;-73
2022/05/05 00:41:46;;;;;;;;;14.67;14.00;;;;;;;;5068905;28;45250;-73
2022/05/05 00:44:12;;;;;;;;;13.33;12.00;;;;;;;;5050095;28;45690;-73
2022/05/05 00:46:37;;;;;;;;;13.67;12.00;;;;;;;;5051581;28;45399;-74
2022/05/05 00:49:03;;;;;;;;;12.33;10.67;;;;;;;;5069572;28;45390;-74
2022/05/05 00:51:29;;;;;;;;;11.33;11.33;;;;;;;;5068961;28;45795;-75
2022/05/05 00:53:54;;;;;;;;;13.33;12.33;;;;;;;;5069058;28;45777;-73
2022/05/05 00:56:20;;;;;;;;;13.33;11.67;;;;;;;;5068860;28;45381;-74
2022/05/05 00:58:46;;;;;;;;;13.67;13.67;;;;;;;;5069455;28;45483;-73
2022/05/05 01:01:13;;;;;;;;;11.67;9.00;;;;;;;;5068533;28;45612;-74
2022/05/05 01:03:38;;;;;;;;;13.00;13.00;;;;;;;;5068072;28;46098;-73
2022/05/05 01:06:04;;;;;;;;;13.33;12.33;;;;;;;;5068299;28;45311;-72
2022/05/05 01:09:03;;;;;;;;;9.00;8.67;;;;;;;;5072820;28;45355;-74
2022/05/05 01:11:46;;;;;;;;;13.00;12.33;;;;;;;;5053898;28;45558;-74
2022/05/05 01:14:20;;;;;;;;;13.00;10.67;;;;;;;;5022739;28;45416;-69
2022/05/05 01:16:51;;;;;;;;;12.67;12.67;;;;;;;;5041527;28;45310;-73
2022/05/05 01:19:28;;;;;;;;;11.67;10.00;;;;;;;;5025196;28;45328;-73
2022/05/05 01:22:11;;;;;;;;;11.00;10.33;;;;;;;;5025586;28;45566;-74
2022/05/05 01:33:50;;;;;;;;;9.00;6.00;;;;;;;;5045603;28;45526;-68
2022/05/05 01:36:26;;;;;;;;;;;;;;;;;;;;;
2022/05/05 01:38:55;;;;;;;;;13.00;10.67;;;;;;;;5061530;28;72456;-69
2022/05/05 01:44:26;;;;;;;;;13.33;10.33;;;;;;;;5027494;28;45593;-73
2022/05/05 01:47:13;;;;;;;;;10.33;8.33;;;;;;;;5025805;28;46621;-74
2022/05/05 01:49:45;;;;;;;;;10.33;9.67;;;;;;;;5045491;28;45700;-72
2022/05/05 01:52:16;;;;;;;;;5.33;4.33;;;;;;;;5043460;28;45321;-73
2022/05/05 01:54:53;;;;;;;;;9.00;8.00;;;;;;;;5025320;28;45298;-74
2022/05/05 01:57:27;;;;;;;;;12.00;11.00;;;;;;;;5033632;28;46743;-73
2022/05/05 02:00:31;;;;;;;;;12.33;8.67;;;;;;;;5042057;28;45526;-68
2022/05/05 02:03:04;;;;;;;;;9.33;8.00;;;;;;;;5037612;28;45678;-68
2022/05/05 02:05:45;;;;;;;;;8.33;8.33;;;;;;;;5039155;28;46652;-68
2022/05/05 02:08:26;;;;;;;;;14.67;12.33;;;;;;;;5027515;28;45552;-67
2022/05/05 02:13:58;;;;;;;;;12.00;11.33;;;;;;;;5039567;28;45964;-69
2022/05/05 02:16:34;;;;;;;;;12.33;11.00;;;;;;;;5057788;28;45334;-68
2022/05/05 02:19:00;;;;;;;;;14.00;11.67;;;;;;;;5054296;28;45596;-67
2022/05/05 02:21:25;;;;;;;;;11.67;10.67;;;;;;;;5053553;28;45718;-68
2022/05/05 02:23:50;;;;;;;;;9.33;8.00;;;;;;;;5052786;28;45639;-69
2022/05/05 02:26:16;;;;;;;;;12.67;8.00;;;;;;;;5041205;28;45739;-67
2022/05/05 02:28:41;;;;;;;;;9.67;9.00;;;;;;;;5033355;28;45306;-71
2022/05/05 02:31:06;;;;;;;;;10.00;10.00;;;;;;;;5041165;28;45751;-73
2022/05/05 02:33:31;;;;;;;;;16.33;11.33;;;;;;;;5053381;28;45696;-73
2022/05/05 02:38:44;;;;;;;;;15.33;13.00;;;;;;;;5053157;28;45724;-73
2022/05/05 02:41:09;;;;;;;;;10.67;9.33;;;;;;;;5053045;28;45481;-73
2022/05/05 02:43:34;;;;;;;;;15.00;12.00;;;;;;;;5053992;28;45352;-73
2022/05/05 02:46:00;;;;;;;;;11.33;11.33;;;;;;;;5053939;28;45709;-74
2022/05/05 02:48:25;;;;;;;;;10.33;10.33;;;;;;;;5053799;28;46832;-73
2022/05/05 02:50:50;;;;;;;;;12.00;10.50;;;;;;;;5053996;28;45657;-72
2022/05/05 02:55:59;;;;;;;;;13.00;13.00;;;;;;;;5053953;28;45718;-73
2022/05/05 02:58:27;;;;;;;;;13.00;11.67;;;;;;;;5035777;28;46764;-72
2022/05/05 03:00:52;;;;;;;;;13.67;12.00;;;;;;;;5035514;28;45845;-73
2022/05/05 03:03:18;;;;;;;;;10.33;10.33;;;;;;;;5053266;28;45600;-68
2022/05/05 03:05:43;;;;;;;;;15.33;13.33;;;;;;;;5035112;28;45880;-67
2022/05/05 03:08:08;;;;;;;;;15.33;12.33;;;;;;;;5053177;28;45710;-74
2022/05/05 03:10:33;;;;;;;;;14.67;13.67;;;;;;;;5052702;28;45381;-72
2022/05/05 03:12:59;;;;;;;;;15.67;13.33;;;;;;;;5034481;28;45453;-72
2022/05/05 03:15:24;;;;;;;;;14.67;14.00;;;;;;;;5033049;28;45225;-73
2022/05/05 03:17:50;;;;;;;;;14.33;12.00;;;;;;;;5038847;28;45522;-73
2022/05/05 03:20:15;;;;;;;;;13.33;13.00;;;;;;;;5034870;28;45327;-72
2022/05/05 03:22:40;;;;;;;;;13.00;11.33;;;;;;;;5034980;28;45670;-73
2022/05/05 03:25:06;;;;;;;;;18.67;12.67;;;;;;;;5053196;28;45320;-73
2022/05/05 03:27:31;;;;;;;;;20.00;17.67;;;;;;;;5053352;28;45273;-73
2022/05/05 03:29:56;;;;;;;;;13.67;12.33;;;;;;;;5053531;28;45851;-75
2022/05/05 03:32:28;;;;;;;;;17.67;16.33;;;;;;;;5054075;28;45772;-74
2022/05/05 03:34:53;;;;;;;;;17.33;14.67;;;;;;;;5052726;28;45532;-74
2022/05/05 03:37:19;;;;;;;;;16.33;13.00;;;;;;;;5052789;28;45447;-73
2022/05/05 03:39:44;;;;;;;;;15.33;14.67;;;;;;;;5034835;28;45491;-71
2022/05/05 03:42:10;;;;;;;;;12.00;12.00;;;;;;;;5039172;28;45537;-73
2022/05/05 03:44:35;;;;;;;;;17.00;13.33;;;;;;;;5014968;28;45920;-72
2022/05/05 03:47:00;;;;;;;;;15.67;15.00;;;;;;;;5032956;28;46396;-73
2022/05/05 03:49:25;;;;;;;;;14.00;14.00;;;;;;;;5032828;28;45433;-72
2022/05/05 03:51:51;;;;;;;;;10.67;10.00;;;;;;;;5032778;28;45386;-73
2022/05/05 03:54:16;;;;;;;;;19.00;17.33;;;;;;;;5032658;28;45390;-74
2022/05/05 03:56:41;;;;;;;;;17.00;12.00;;;;;;;;5032519;28;45495;-72
2022/05/05 03:59:06;;;;;;;;;14.67;13.00;;;;;;;;5032530;28;45299;-73
2022/05/05 04:01:32;;;;;;;;;16.33;13.33;;;;;;;;5032694;28;45366;-74
2022/05/05 04:03:57;;;;;;;;;19.33;15.33;;;;;;;;5032390;28;45793;-73
2022/05/05 04:06:22;;;;;;;;;17.67;15.33;;;;;;;;5046279;28;45809;-71
2022/05/05 04:08:48;;;;;;;;;15.67;15.67;;;;;;;;5052712;28;45683;-73
2022/05/05 04:11:13;;;;;;;;;16.67;13.33;;;;;;;;5051284;28;45812;-73
2022/05/05 04:13:39;;;;;;;;;15.67;13.00;;;;;;;;5052202;28;45780;-73
2022/05/05 04:16:05;;;;;;;;;16.67;15.33;;;;;;;;5051988;28;45689;-74
2022/05/05 04:18:31;;;;;;;;;15.67;13.67;;;;;;;;5052214;28;45491;-67
2022/05/05 04:20:57;;;;;;;;;19.67;15.67;;;;;;;;5034216;28;45308;-67
2022/05/05 04:23:22;;;;;;;;;15.67;14.00;;;;;;;;5033784;28;45955;-66
2022/05/05 04:25:48;;;;;;;;;17.33;14.33;;;;;;;;5051278;28;46035;-67
2022/05/05 04:28:14;;;;;;;;;19.00;14.00;;;;;;;;5052014;28;45355;-66
2022/05/05 04:30:39;;;;;;;;;16.33;16.00;;;;;;;;5051816;28;45358;-67
2022/05/05 04:33:05;;;;;;;;;19.00;17.67;;;;;;;;5051842;28;45359;-66
2022/05/05 04:35:30;;;;;;;;;39.67;31.67;;;;;;;;5051542;28;45690;-66
2022/05/05 04:37:56;;;;;;;;;20.00;17.00;;;;;;;;5030980;28;46745;-67
2022/05/05 04:40:21;;;;;;;;;21.67;20.33;;;;;;;;5024248;28;45449;-66
2022/05/05 04:42:47;;;;;;;;;16.00;12.67;;;;;;;;5031199;28;45866;-66
2022/05/05 04:45:12;;;;;;;;;20.67;18.00;;;;;;;;5029417;28;46873;-67
2022/05/05 04:47:38;;;;;;;;;16.67;15.33;;;;;;;;5027398;28;45792;-68
2022/05/05 04:50:03;;;;;;;;;16.67;15.33;;;;;;;;5048454;28;45790;-68
2022/05/05 04:52:31;;;;;;;;;19.33;16.33;;;;;;;;5045353;28;46167;-67
2022/05/05 04:54:56;;;;;;;;;20.00;17.00;;;;;;;;5042058;28;45896;-69
2022/05/05 04:57:21;;;;;;;;;23.33;18.33;;;;;;;;5024275;28;45774;-70
2022/05/05 04:59:46;;;;;;;;;18.00;18.00;;;;;;;;5026814;28;45386;-67
2022/05/05 05:02:12;;;;;;;;;27.00;18.67;;;;;;;;5045520;28;45357;-69
2022/05/05 05:04:37;;;;;;;;;18.00;16.00;;;;;;;;5047700;28;46393;-67
2022/05/05 05:07:02;;;;;;;;;20.67;18.00;;;;;;;;5026294;28;45594;-67
2022/05/05 05:09:28;;;;;;;;;21.67;20.00;;;;;;;;5042718;28;45607;-69
2022/05/05 05:11:53;;;;;;;;;20.67;16.33;;;;;;;;5027914;28;45807;-67
2022/05/05 05:14:18;;;;;;;;;20.67;17.33;;;;;;;;5045607;28;45767;-67
2022/05/05 05:16:44;;;;;;;;;18.33;16.00;;;;;;;;5018980;28;45666;-67
2022/05/05 05:19:09;;;;;;;;;21.00;18.33;;;;;;;;5026889;28;45403;-68
2022/05/05 05:21:34;;;;;;;;;20.33;17.00;;;;;;;;5047545;28;45636;-69
2022/05/05 05:24:00;;;;;;;;;20.33;19.67;;;;;;;;5025646;28;47061;-67
2022/05/05 05:26:25;;;;;;;;;17.33;16.00;;;;;;;;5037560;28;45446;-67
2022/05/05 05:28:50;;;;;;;;;25.33;19.33;;;;;;;;5027744;28;45780;-68
2022/05/05 05:31:16;;;;;;;;;31.67;20.33;;;;;;;;5029234;28;45911;-68
2022/05/05 05:33:42;;;;;;;;;19.00;16.33;;;;;;;;5029592;28;47782;-67
2022/05/05 05:36:08;;;;;;;;;26.00;22.67;;;;;;;;5038345;28;45476;-67
2022/05/05 05:38:33;;;;;;;;;19.00;18.00;;;;;;;;5034008;28;45430;-67
2022/05/05 05:40:59;;;;;;;;;20.67;19.67;;;;;;;;5027761;28;46308;-67
2022/05/05 05:43:24;;;;;;;;;20.00;17.00;;;;;;;;5048610;28;46513;-68
2022/05/05 05:45:49;;;;;;;;;21.00;17.00;;;;;;;;5032429;28;45426;-67
2022/05/05 05:48:14;;;;;;;;;21.33;19.33;;;;;;;;5033084;28;45335;-74
2022/05/05 05:50:40;;;;;;;;;20.00;18.00;;;;;;;;5034179;28;45339;-71
2022/05/05 05:53:06;;;;;;;;;27.33;23.67;;;;;;;;5033709;28;46229;-66
2022/05/05 05:58:13;;;;;;;;;25.67;20.67;;;;;;;;4567542;26;45586;-79
2022/05/05 06:00:41;;;;;;;;;16.67;16.33;;;;;;;;4969818;28;46105;-80
2022/05/05 06:05:51;;;;;;;;;25.67;21.00;;;;;;;;4963370;28;45494;-82
2022/05/05 06:08:17;;;;;;;;;22.33;19.33;;;;;;;;4952440;28;45618;-81
2022/05/05 06:10:42;;;;;;;;;22.00;16.00;;;;;;;;4954706;28;45653;-81
2022/05/05 06:13:08;;;;;;;;;24.67;24.33;;;;;;;;4943959;28;46279;-83
2022/05/05 06:15:33;;;;;;;;;24.33;21.00;;;;;;;;4948128;28;45513;-83
2022/05/05 06:17:59;;;;;;;;;26.33;22.00;;;;;;;;4960903;28;45489;-82
2022/05/05 06:20:24;;;;;;;;;21.00;18.00;;;;;;;;4945489;28;45782;-84
2022/05/05 06:22:53;;;;;;;;;28.33;23.00;;;;;;;;4945048;28;47035;-84
2022/05/05 06:25:23;;;;;;;;;24.00;22.00;;;;;;;;4961347;28;45712;-84
2022/05/05 06:27:56;;;;;;;;;20.33;19.67;;;;;;;;4941512;28;45316;-85
2022/05/05 06:30:24;;;;;;;;;20.00;20.00;;;;;;;;4956409;28;46067;-83
2022/05/05 06:32:50;;;;;;;;;20.67;18.67;;;;;;;;4959913;28;46341;-84
2022/05/05 06:35:21;;;;;;;;;19.00;19.00;;;;;;;;4944827;28;45557;-82
2022/05/05 06:37:57;;;;;;;;;19.67;18.00;;;;;;;;4959667;28;45468;-83
2022/05/05 06:40:24;;;;;;;;;21.67;20.00;;;;;;;;4943027;28;46055;-80
2022/05/05 06:43:03;;;;;;;;;;;;;;;;;;;;;
2022/05/05 06:45:29;;;;;;;;;19.67;18.67;;;;;;;;4951074;28;73083;-82
2022/05/05 06:48:04;;;;;;;;;24.00;20.00;;;;;;;;4945114;28;45549;-87
2022/05/05 06:50:29;;;;;;;;;23.67;23.33;;;;;;;;4949031;28;45306;-88
2022/05/05 06:53:00;;;;;;;;;20.67;20.67;;;;;;;;4948346;28;47021;-85
2022/05/05 06:55:25;;;;;;;;;19.00;16.00;;;;;;;;4945136;28;45559;-84
2022/05/05 06:57:51;;;;;;;;;25.67;24.67;;;;;;;;4942939;28;45533;-84
2022/05/05 07:00:19;;;;;;;;;26.67;23.67;;;;;;;;4946655;28;46014;-86
2022/05/05 07:02:47;;;;;;;;;23.67;21.33;;;;;;;;4960814;28;45820;-82
2022/05/05 07:05:27;;;;;;;;;19.33;17.67;;;;;;;;4960351;28;45845;-86
2022/05/05 07:07:52;;;;;;;;;20.00;19.00;;;;;;;;4946195;28;45723;-86
2022/05/05 07:13:24;;;;;;;;;26.33;21.67;;;;;;;;4966907;28;45912;-85
2022/05/05 07:16:00;;;;;;;;;18.00;17.33;;;;;;;;4952167;28;45438;-84
2022/05/05 07:18:30;;;;;;;;;24.67;20.67;;;;;;;;4962960;28;45405;-84
2022/05/05 07:21:15;;;;;;;;;24.00;20.33;;;;;;;;4952094;28;45560;-83
2022/05/05 07:24:03;;;;;;;;;20.67;16.33;;;;;;;;4939747;28;46415;-85
2022/05/05 07:26:29;;;;;;;;;28.00;23.33;;;;;;;;4944971;28;45350;-84
2022/05/05 07:29:01;;;;;;;;;23.33;20.33;;;;;;;;4959860;28;44782;-85
2022/05/05 07:31:39;;;;;;;;;18.67;17.33;;;;;;;;4939166;28;45901;-83
2022/05/05 07:34:21;;;;;;;;;19.67;15.67;;;;;;;;4955824;28;46514;-83
2022/05/05 07:37:37;;;;;;;;;22.33;22.00;;;;;;;;4942095;28;45062;-86
2022/05/05 07:40:29;;;;;;;;;15.67;13.67;;;;;;;;4969952;28;44776;-80
2022/05/05 07:49:12;;;;;;;;;7.00;6.67;;;;;;;;4980701;23;45603;-73
2022/05/05 07:51:37;;;;;;;;;15.33;14.33;;;;;;;;4953446;28;45354;-73
2022/05/05 07:56:47;;;;;;;;;15.33;13.33;;;;;;;;4970617;28;45984;-72
2022/05/05 07:59:12;;;;;;;;;18.67;17.33;;;;;;;;4988552;28;45772;-73
2022/05/05 08:01:38;;;;;;;;;17.67;16.67;;;;;;;;4990656;28;45577;-72
2022/05/05 08:07:23;;;;;;;;;19.33;18.00;;;;;;;;4930231;28;45748;-69
2022/05/05 08:09:48;;;;;;;;;17.33;14.67;;;;;;;;4932957;28;45720;-73
2022/05/05 08:12:15;;;;;;;;;15.33;11.00;;;;;;;;4927529;28;45620;-72
2022/05/05 08:14:40;;;;;;;;;16.00;15.67;;;;;;;;4974417;28;45652;-72
2022/05/05 08:17:05;;;;;;;;;19.00;17.33;;;;;;;;4962412;28;45838;-72
2022/05/05 08:19:31;;;;;;;;;16.33;15.00;;;;;;;;4966617;28;46000;-71
2022/05/05 08:21:56;;;;;;;;;16.33;14.67;;;;;;;;4969797;28;46329;-71
2022/05/05 08:29:49;;;;;;;;;15.67;14.67;;;;;;;;4954313;28;45611;-72
2022/05/05 08:32:15;;;;;;;;;17.67;13.67;;;;;;;;4955533;28;45373;-71
2022/05/05 08:34:40;;;;;;;;;15.67;14.67;;;;;;;;4959351;28;45567;-72
2022/05/05 08:37:05;;;;;;;;;20.00;17.67;;;;;;;;4972880;28;47253;-72
2022/05/05 08:39:31;;;;;;;;;16.00;15.33;;;;;;;;4955050;28;45559;-75
2022/05/05 08:41:59;;;;;;;;;13.67;12.00;;;;;;;;4963694;28;45478;-69
2022/05/05 08:44:24;;;;;;;;;10.00;10.00;;;;;;;;4942946;28;46946;-70
2022/05/05 08:46:53;;;;;;;;;8.75;8.75;;;;;;;;4952376;28;45821;-69
2022/05/05 08:49:21;;;;;;;;;11.00;9.00;;;;;;;;4962071;28;45834;-70
2022/05/05 08:51:49;;;;;;;;;8.50;8.50;;;;;;;;4957042;28;45819;-71
2022/05/05 08:54:16;;;;;;;;;8.25;6.50;;;;;;;;4952064;28;45629;-70
2022/05/05 08:56:47;;;;;;;;;8.25;7.00;;;;;;;;4970200;28;46004;-71
2022/05/05 08:59:13;;;;;;;;;11.00;10.00;;;;;;;;4971514;28;45775;-73
2022/05/05 09:01:39;;;;;;;;;6.75;6.50;;;;;;;;4966685;28;45646;-71
2022/05/05 09:04:08;;;;;;;;;9.00;6.75;;;;;;;;4962391;28;46107;-72
2022/05/05 09:06:40;;;;;;;;;7.75;7.00;;;;;;;;4973242;28;45636;-68
2022/05/05 09:09:06;;;;;;;;;10.00;7.75;;;;;;;;4973455;28;45703;-69
2022/05/05 09:11:31;;;;;;;;;9.00;9.00;;;;;;;;4980015;28;45715;-71
2022/05/05 09:14:06;;;;;;;;;7.25;7.25;;;;;;;;4984389;28;45866;-71
2022/05/05 09:16:32;;;;;;;;;10.75;10.00;;;;;;;;4969966;28;47451;-72
2022/05/05 09:19:01;;;;;;;;;8.50;7.00;;;;;;;;4982319;28;45502;-68
2022/05/05 09:21:34;;;;;;;;;10.25;10.25;;;;;;;;4971680;28;45694;-72
2022/05/05 09:26:55;;;;;;;;;8.00;8.00;;;;;;;;4965666;28;45789;-70
2022/05/05 09:29:20;;;;;;;;;7.50;7.25;;;;;;;;4975454;28;45508;-70
2022/05/05 09:31:48;;;;;;;;;8.00;8.00;;;;;;;;4972227;28;45403;-71
2022/05/05 09:34:19;;;;;;;;;7.25;4.75;;;;;;;;4973395;28;45581;-72
2022/05/05 09:36:45;;;;;;;;;5.00;5.00;;;;;;;;4972894;28;47193;-72
2022/05/05 09:39:12;;;;;;;;;6.00;5.00;;;;;;;;4970983;28;46015;-70
2022/05/05 09:41:44;;;;;;;;;5.25;4.25;;;;;;;;4960587;28;45678;-71
2022/05/05 09:44:13;;;;;;;;;5.50;5.50;;;;;;;;4953869;28;45826;-72
2022/05/05 09:46:39;;;;;;;;;6.00;6.00;;;;;;;;4955033;28;46282;-72
2022/05/05 09:49:10;;;;;;;;;7.25;6.50;;;;;;;;4962626;28;45867;-72
2022/05/05 09:51:39;;;;;;;;;7.75;6.00;;;;;;;;4952743;28;45801;-71
2022/05/05 09:59:40;;;;;;;;;3.50;3.50;;;;;;;;4979999;28;45833;-72
2022/05/05 10:02:12;;;;;;;;;4.00;4.00;;;;;;;;4984042;28;45380;-70
2022/05/05 10:04:39;;;;;;;;;4.50;4.50;;;;;;;;4987229;28;45987;-71
2022/05/05 10:07:06;;;;;;;;;4.75;4.00;;;;;;;;4972675;28;46437;-75
2022/05/05 10:09:32;;;;;;;;;5.00;4.25;;;;;;;;4974191;28;45375;-77
2022/05/05 10:11:57;;;;;;;;;2.50;2.50;;;;;;;;4973161;28;45755;-74
2022/05/05 10:14:24;;;;;;;;;2.25;2.00;;;;;;;;4961561;28;45685;-71
2022/05/05 10:16:50;;;;;;;;;4.00;4.00;;;;;;;;4970449;28;48422;-73
2022/05/05 10:19:28;;;;;;;;;5.00;5.00;;;;;;;;4957354;28;45766;-73
2022/05/05 10:22:02;;;;;;;;;7.75;4.50;;;;;;;;4964785;28;45903;-76
2022/05/05 10:24:31;;;;;;;;;4.00;4.00;;;;;;;;4975932;28;45663;-76
2022/05/05 10:27:00;;;;;;;;;6.25;5.25;;;;;;;;4966191;28;45580;-75
2022/05/05 10:29:32;;;;;;;;;4.00;4.00;;;;;;;;4961389;28;45576;-75
2022/05/05 10:32:09;;;;;;;;;3.00;3.00;;;;;;;;4955069;28;45826;-71
2022/05/05 10:34:34;;;;;;;;;5.50;4.25;;;;;;;;4967282;28;45944;-72
2022/05/05 10:37:01;;;;;;;;;5.00;4.00;;;;;;;;4970895;28;47093;-70
2022/05/05 10:39:43;;;;;;;;;3.25;3.00;;;;;;;;4963565;28;45572;-71
2022/05/05 10:42:13;;;;;;;;;6.25;4.50;;;;;;;;4952634;28;45429;-72
2022/05/05 10:44:58;;;;;;;;;4.50;4.50;;;;;;;;4955735;28;45927;-70
2022/05/05 10:47:24;;;;;;;;;3.25;3.25;;;;;;;;4968140;28;46296;-73
2022/05/05 10:49:49;;;;;;;;;3.50;3.50;;;;;;;;4951585;28;45747;-73
2022/05/05 10:52:14;;;;;;;;;3.25;3.25;;;;;;;;4953605;28;45423;-73
2022/05/05 10:54:41;;;;;;;;;2.00;2.00;;;;;;;;4952892;28;45454;-71
2022/05/05 10:57:25;;;;;;;;;3.00;3.00;;;;;;;;4962749;28;45836;-74
2022/05/05 11:00:10;;;;;;;;;4.00;4.00;;;;;;;;4969256;28;45920;-70
2022/05/05 11:02:37;;;;;;;;;4.75;4.75;;;;;;;;4963107;28;45618;-73
2022/05/05 11:05:22;;;;;;;;;2.25;2.25;;;;;;;;4962129;28;45727;-72
2022/05/05 11:07:51;;;;;;;;;3.25;3.25;;;;;;;;4972180;28;45852;-72
2022/05/05 11:10:35;;;;;;;;;4.25;4.25;;;;;;;;4955191;28;45804;-71
2022/05/05 11:13:00;;;;;;;;;4.00;4.00;;;;;;;;4972224;28;45441;-73
2022/05/05 11:23:56;;;;;;;;;2.00;2.00;;;;;;;;4974763;28;45498;-72
2022/05/05 11:26:21;;;;;;;;;4.00;4.00;;;;;;;;4971267;28;45837;-72
2022/05/05 11:28:48;;;;;;;;;5.00;5.00;;;;;;;;4971848;28;45891;-72
2022/05/05 11:31:16;;;;;;;;;2.50;2.50;;;;;;;;4970764;28;45342;-72
2022/05/05 11:33:41;;;;;;;;;4.75;3.00;;;;;;;;4959415;28;45349;-71
2022/05/05 11:36:06;;;;;;;;;3.75;3.75;;;;;;;;4971560;28;45328;-73
2022/05/05 11:38:32;;;;;;;;;2.25;2.25;;;;;;;;4966186;28;45560;-71
2022/05/05 11:41:01;;;;;;;;;2.50;2.50;;;;;;;;4972268;28;45625;-70
2022/05/05 11:46:12;;;;;;;;;4.00;4.00;;;;;;;;4972573;28;45270;-73
2022/05/05 11:48:37;;;;;;;;;3.00;3.00;;;;;;;;4954022;28;48036;-72
2022/05/05 11:51:06;;;;;;;;;3.00;3.00;;;;;;;;4954957;28;45468;-72
2022/05/05 11:53:31;;;;;;;;;3.00;3.00;;;;;;;;4971836;28;45436;-71
2022/05/05 11:55:56;;;;;;;;;5.00;3.67;;;;;;;;4964374;28;45748;-73
2022/05/05 12:04:00;;;;;;;;;2.67;2.67;;;;;;;;4964878;28;45809;-72
2022/05/05 12:06:26;;;;;;;;;2.33;2.33;;;;;;;;4970062;28;45424;-72
2022/05/05 12:08:52;;;;;;;;;4.67;4.67;;;;;;;;4971269;28;46041;-73
2022/05/05 12:11:18;;;;;;;;;3.67;3.67;;;;;;;;4971981;28;45436;-73
2022/05/05 12:13:43;;;;;;;;;2.67;2.67;;;;;;;;4968620;28;45415;-72
2022/05/05 12:16:10;;;;;;;;;3.00;3.00;;;;;;;;4967682;28;45708;-72
2022/05/05 12:18:48;;;;;;;;;4.00;4.00;;;;;;;;4971312;28;45941;-73
2022/05/05 12:21:23;;;;;;;;;4.67;4.67;;;;;;;;4971687;28;45421;-72
2022/05/05 12:23:58;;;;;;;;;3.00;3.00;;;;;;;;4959848;28;45384;-71
2022/05/05 12:26:27;;;;;;;;;4.33;4.33;;;;;;;;4949355;28;46299;-71
2022/05/05 12:28:52;;;;;;;;;4.67;3.67;;;;;;;;4950684;28;45990;-71
2022/05/05 12:31:21;;;;;;;;;3.00;2.00;;;;;;;;4962100;28;45851;-73
2022/05/05 12:33:47;;;;;;;;;2.33;2.33;;;;;;;;4969842;28;45432;-70
2022/05/05 12:36:13;;;;;;;;;2.00;2.00;;;;;;;;4968696;28;45724;-70
2022/05/05 12:38:39;;;;;;;;;2.00;2.00;;;;;;;;4969780;28;45707;-72
2022/05/05 12:41:07;;;;;;;;;3.00;3.00;;;;;;;;4952213;28;45572;-70
2022/05/05 12:43:34;;;;;;;;;3.00;2.00;;;;;;;;4970963;28;45468;-73
2022/05/05 12:46:03;;;;;;;;;4.67;2.67;;;;;;;;4970276;28;45446;-72
2022/05/05 12:48:28;;;;;;;;;3.00;3.00;;;;;;;;4974187;28;45482;-72
2022/05/05 12:50:54;;;;;;;;;3.00;3.00;;;;;;;;4970691;28;45340;-73
2022/05/05 13:01:45;;;;;;;;;2.00;2.00;;;;;;;;4968628;28;45873;-71
2022/05/05 13:04:13;;;;;;;;;4.67;2.00;;;;;;;;4957606;28;45691;-73
2022/05/05 13:06:42;;;;;;;;;4.33;2.33;;;;;;;;4972997;28;45333;-73
2022/05/05 13:09:11;;;;;;;;;3.00;3.00;;;;;;;;4977836;28;45931;-73
2022/05/05 13:12:41;;;;;;;;;2.75;2.75;;;;;;;;4976406;28;45982;-75
2022/05/05 13:14:32;;;;;;;;;2.00;2.00;;;;;;;;4965160;28;45471;-74
2022/05/05 13:16:58;;;;;;;;;3.00;3.00;;;;;;;;4985463;28;45398;-73
2022/05/05 13:19:25;;;;;;;;;2.33;2.33;;;;;;;;4979789;28;45728;-72
2022/05/05 13:21:53;;;;;;;;;5.00;3.00;;;;;;;;4976048;28;45950;-71
2022/05/05 13:24:19;;;;;;;;;2.25;2.25;;;;;;;;4970729;28;45638;-71
2022/05/05 13:26:45;;;;;;;;;2.33;2.33;;;;;;;;4968510;28;46800;-72
2022/05/05 13:29:11;;;;;;;;;3.25;3.00;;;;;;;;4953621;28;45749;-73
2022/05/05 13:31:36;;;;;;;;;1.00;1.00;;;;;;;;4969093;28;45745;-73
2022/05/05 13:34:02;;;;;;;;;2.00;2.00;;;;;;;;4973419;28;45761;-73
2022/05/05 13:36:27;;;;;;;;;5.00;4.00;;;;;;;;4973238;28;45744;-73
2022/05/05 13:38:53;;;;;;;;;2.00;2.00;;;;;;;;4973101;28;46906;-74
2022/05/05 13:41:18;;;;;;;;;2.75;2.50;;;;;;;;4973348;28;45375;-76
2022/05/05 13:43:43;;;;;;;;;2.00;2.00;;;;;;;;4973661;28;45360;-73
2022/05/05 13:46:09;;;;;;;;;2.00;2.00;;;;;;;;4973646;28;45864;-72
2022/05/05 13:48:35;;;;;;;;;3.75;2.75;;;;;;;;4970787;28;45799;-71
2022/05/05 13:51:03;;;;;;;;;3.33;3.33;;;;;;;;4972954;28;45754;-73
2022/05/05 13:53:29;;;;;;;;;3.75;2.00;;;;;;;;4956195;28;45758;-73
2022/05/05 13:55:54;;;;;;;;;2.67;2.67;;;;;;;;4973643;28;45880;-72
2022/05/05 13:58:20;;;;;;;;;3.25;3.25;;;;;;;;4973242;28;46908;-73
2022/05/05 14:00:46;;;;;;;;;3.50;2.75;;;;;;;;4955681;28;46066;-72
2022/05/05 14:03:12;;;;;;;;;2.00;2.00;;;;;;;;4972482;28;45834;-72
2022/05/05 14:05:37;;;;;;;;;4.33;4.33;;;;;;;;4971810;28;45463;-72
2022/05/05 14:13:30;;;;;;;;;2.00;2.00;;;;;;;;4974022;28;45419;-74
2022/05/05 14:15:56;;;;;;;;;4.00;4.00;;;;;;;;4972751;28;46168;-74
2022/05/05 14:18:23;;;;;;;;;4.00;2.00;;;;;;;;4969438;28;45413;-73
2022/05/05 14:20:48;;;;;;;;;1.75;1.75;;;;;;;;4959209;28;45645;-77
2022/05/05 14:23:14;;;;;;;;;3.00;3.00;;;;;;;;4958602;28;45693;-74
2022/05/05 14:25:39;;;;;;;;;3.00;2.00;;;;;;;;4965230;28;45504;-74
2022/05/05 14:28:04;;;;;;;;;2.00;2.00;;;;;;;;4972956;28;45373;-76
2022/05/05 14:30:30;;;;;;;;;4.00;2.00;;;;;;;;4950991;28;45379;-73
2022/05/05 14:32:55;;;;;;;;;2.25;2.25;;;;;;;;4939133;28;45749;-74
2022/05/05 14:35:21;;;;;;;;;3.33;2.33;;;;;;;;4971654;28;45863;-72
2022/05/05 14:37:46;;;;;;;;;3.00;3.00;;;;;;;;4972718;28;45902;-73
2022/05/05 14:40:12;;;;;;;;;2.00;2.00;;;;;;;;4973036;28;45669;-73
2022/05/05 14:42:38;;;;;;;;;2.00;2.00;;;;;;;;4972910;28;45401;-75
2022/05/05 14:45:03;;;;;;;;;2.00;2.00;;;;;;;;4972867;28;45767;-74
2022/05/05 14:47:29;;;;;;;;;2.00;2.00;;;;;;;;4958469;28;48278;-73
2022/05/05 14:49:55;;;;;;;;;2.75;1.75;;;;;;;;4979026;28;45385;-75
2022/05/05 14:52:20;;;;;;;;;3.67;1.67;;;;;;;;4957426;28;45376;-74
2022/05/05 14:54:45;;;;;;;;;2.00;2.00;;;;;;;;4972183;28;45556;-73
2022/05/05 14:57:12;;;;;;;;;3.00;3.00;;;;;;;;4972086;28;46096;-73
2022/05/05 14:59:37;;;;;;;;;2.25;2.00;;;;;;;;4956018;28;45497;-73
2022/05/05 15:02:03;;;;;;;;;3.67;2.33;;;;;;;;4972383;28;46212;-74
2022/05/05 15:04:28;;;;;;;;;0.00;0.00;;;;;;;;4972336;28;45900;-72
2022/05/05 15:06:53;;;;;;;;;3.00;3.00;;;;;;;;4972258;28;45863;-73
2022/05/05 15:09:19;;;;;;;;;3.00;3.00;;;;;;;;4971297;28;45701;-71
2022/05/05 15:11:44;;;;;;;;;2.00;2.00;;;;;;;;4972065;28;45435;-72
2022/05/05 15:14:10;;;;;;;;;4.33;2.33;;;;;;;;4971317;28;46176;-74
2022/05/05 15:16:35;;;;;;;;;2.33;2.33;;;;;;;;4972558;28;45714;-74
2022/05/05 15:19:01;;;;;;;;;1.25;1.00;;;;;;;;4972218;28;45599;-73
2022/05/05 15:21:27;;;;;;;;;2.67;2.00;;;;;;;;4972059;28;45651;-71
2022/05/05 15:23:54;;;;;;;;;2.33;2.00;;;;;;;;4970393;28;45490;-71
2022/05/05 15:26:19;;;;;;;;;3.00;3.00;;;;;;;;4970773;28;46303;-71
2022/05/05 15:28:45;;;;;;;;;4.00;2.00;;;;;;;;4966000;28;45798;-76
2022/05/05 15:31:10;;;;;;;;;2.00;2.00;;;;;;;;4959463;28;45417;-72
2022/05/05 15:33:36;;;;;;;;;2.33;2.33;;;;;;;;4966488;28;45678;-73
2022/05/05 15:36:01;;;;;;;;;2.00;2.00;;;;;;;;4954503;28;46885;-73
2022/05/05 15:38:28;;;;;;;;;3.00;3.00;;;;;;;;4954563;28;45345;-72
2022/05/05 15:40:54;;;;;;;;;2.00;2.00;;;;;;;;4971782;28;45728;-72
2022/05/05 15:43:19;;;;;;;;;2.00;2.00;;;;;;;;4971707;28;45420;-72
2022/05/05 15:45:45;;;;;;;;;2.33;2.33;;;;;;;;4957563;28;48183;-73
2022/05/05 15:48:11;;;;;;;;;4.00;2.00;;;;;;;;4967459;28;45783;-73
2022/05/05 15:50:36;;;;;;;;;3.00;3.00;;;;;;;;4972928;28;45667;-72
2022/05/05 15:53:01;;;;;;;;;3.67;2.00;;;;;;;;4973865;28;45780;-74
2022/05/05 15:55:27;;;;;;;;;3.00;3.00;;;;;;;;4973103;28;45690;-73
2022/05/05 15:57:52;;;;;;;;;2.00;2.00;;;;;;;;4955353;28;45637;-73
2022/05/05 16:00:19;;;;;;;;;2.00;2.00;;;;;;;;4957760;28;45793;-74
2022/05/05 16:02:46;;;;;;;;;3.33;2.00;;;;;;;;4962259;28;45392;-73
2022/05/05 16:05:12;;;;;;;;;4.00;2.67;;;;;;;;4964420;28;45994;-73
2022/05/05 16:07:38;;;;;;;;;1.25;1.25;;;;;;;;4960392;28;45463;-72
2022/05/05 16:10:03;;;;;;;;;1.00;1.00;;;;;;;;4961223;28;45896;-73
2022/05/05 16:12:29;;;;;;;;;2.33;2.33;;;;;;;;4939665;28;45966;-73
2022/05/05 16:14:54;;;;;;;;;3.00;2.00;;;;;;;;4964897;28;45423;-71
2022/05/05 16:17:38;;;;;;;;;2.00;2.00;;;;;;;;4964627;28;45447;-72
2022/05/05 16:20:04;;;;;;;;;3.00;2.00;;;;;;;;4945351;28;46046;-72